地図

経路データ

SID SEASON NUMBER BASIN SUBBASIN NAME ISO_TIME NATURE LAT LON WMO_WIND WMO_PRES WMO_AGENCY TRACK_TYPE DIST2LAND LANDFALL IFLAG USA_AGENCY USA_ATCF_ID USA_LAT USA_LON USA_RECORD USA_STATUS USA_WIND USA_PRES USA_SSHS USA_R34_NE USA_R34_SE USA_R34_SW USA_R34_NW USA_R50_NE USA_R50_SE USA_R50_SW USA_R50_NW USA_R64_NE USA_R64_SE USA_R64_SW USA_R64_NW USA_POCI USA_ROCI USA_RMW USA_EYE TOKYO_LAT TOKYO_LON TOKYO_GRADE TOKYO_WIND TOKYO_PRES TOKYO_R50_DIR TOKYO_R50_LONG TOKYO_R50_SHORT TOKYO_R30_DIR TOKYO_R30_LONG TOKYO_R30_SHORT TOKYO_LAND CMA_LAT CMA_LON CMA_CAT CMA_WIND CMA_PRES HKO_LAT HKO_LON HKO_CAT HKO_WIND HKO_PRES NEWDELHI_LAT NEWDELHI_LON NEWDELHI_GRADE NEWDELHI_WIND NEWDELHI_PRES NEWDELHI_CI NEWDELHI_DP NEWDELHI_POCI REUNION_LAT REUNION_LON REUNION_TYPE REUNION_WIND REUNION_PRES REUNION_TNUM REUNION_CI REUNION_RMW REUNION_R34_NE REUNION_R34_SE REUNION_R34_SW REUNION_R34_NW REUNION_R50_NE REUNION_R50_SE REUNION_R50_SW REUNION_R50_NW REUNION_R64_NE REUNION_R64_SE REUNION_R64_SW REUNION_R64_NW BOM_LAT BOM_LON BOM_TYPE BOM_WIND BOM_PRES BOM_TNUM BOM_CI BOM_RMW BOM_R34_NE BOM_R34_SE BOM_R34_SW BOM_R34_NW BOM_R50_NE BOM_R50_SE BOM_R50_SW BOM_R50_NW BOM_R64_NE BOM_R64_SE BOM_R64_SW BOM_R64_NW BOM_ROCI BOM_POCI BOM_EYE BOM_POS_METHOD BOM_PRES_METHOD NADI_LAT NADI_LON NADI_CAT NADI_WIND NADI_PRES WELLINGTON_LAT WELLINGTON_LON WELLINGTON_WIND WELLINGTON_PRES DS824_LAT DS824_LON DS824_STAGE DS824_WIND DS824_PRES TD9636_LAT TD9636_LON TD9636_STAGE TD9636_WIND TD9636_PRES TD9635_LAT TD9635_LON TD9635_WIND TD9635_PRES TD9635_ROCI NEUMANN_LAT NEUMANN_LON NEUMANN_CLASS NEUMANN_WIND NEUMANN_PRES MLC_LAT MLC_LON MLC_CLASS MLC_WIND MLC_PRES USA_GUST BOM_GUST BOM_GUST_PER REUNION_GUST REUNION_GUST_PER USA_SEAHGT USA_SEARAD_NE USA_SEARAD_SE USA_SEARAD_SW USA_SEARAD_NW STORM_SPEED STORM_DIR
1956063S18171 1956 25 SP MM NOT_NAMED 1956-03-02 12:00:00 TS -18.0000 170.700 main 345 345 O________OO___ jtwc_sh SH251956 -18.0000 170.700 -1 -18.0000 170.700 TC -18.0000 170.700 4 5 90
1956063S18171 1956 25 SP MM NOT_NAMED 1956-03-02 15:00:00 TS -18.0002 170.956 main 374 374 P________PP___ SH251956 -17.9876 170.955 -1 -17.9876 170.955 TC -18.0254 170.958 4 5 92
1956063S18171 1956 25 SP MM NOT_NAMED 1956-03-02 18:00:00 TS -18.0168 171.201 main 393 393 O________OP___ jtwc_sh SH251956 -18.0000 171.200 -1 -18.0000 171.200 TC -18.0504 171.202 4 4 98
1956063S18171 1956 25 SP MM NOT_NAMED 1956-03-02 21:00:00 TS -18.0584 171.422 main 417 417 P________PP___ SH251956 -18.0500 171.422 -1 -18.0500 171.422 TC -18.0752 171.421 4 4 102
1956063S18171 1956 25 SP MM NOT_NAMED 1956-03-03 00:00:00 TS -18.1000 171.600 main 436 436 O________OO___ jtwc_sh SH251956 -18.1000 171.600 -1 -18.1000 171.600 TC -18.1000 171.600 4 3 100
1956063S18171 1956 25 SP MM NOT_NAMED 1956-03-03 03:00:00 TS -18.1083 171.721 main 446 446 P________PP___ SH251956 -18.1000 171.715 -1 -18.1000 171.715 TC -18.1248 171.732 4 2 95
1956063S18171 1956 25 SP MM NOT_NAMED 1956-03-03 06:00:00 TS -18.1166 171.810 main 456 456 O________OP___ jtwc_sh SH251956 -18.1000 171.800 -1 -18.1000 171.800 TC -18.1498 171.830 4 2 105
1956063S18171 1956 25 SP MM NOT_NAMED 1956-03-03 09:00:00 TS -18.1533 171.899 main 470 470 P________PP___ SH251956 -18.1425 171.893 -1 -18.1425 171.893 TC -18.1749 171.913 4 2 115
1956063S18171 1956 25 SP MM NOT_NAMED 1956-03-03 12:00:00 TS -18.2000 172.000 main 480 480 O________OO___ jtwc_sh SH251956 -18.2000 172.000 -1 -18.2000 172.000 TC -18.2000 172.000 4 3 112
1956063S18171 1956 25 SP MM NOT_NAMED 1956-03-03 15:00:00 TS -18.2480 172.143 main 490 490 P________PP___ SH251956 -18.2575 172.150 -1 -18.2575 172.150 TC -18.2291 172.130 4 3 107
1956063S18171 1956 25 SP MM NOT_NAMED 1956-03-03 18:00:00 TS -18.2859 172.288 main 513 508 O________OP___ jtwc_sh SH251956 -18.3000 172.300 -1 -18.3000 172.300 TC -18.2576 172.265 4 3 101
1956063S18171 1956 25 SP MM NOT_NAMED 1956-03-03 21:00:00 TS -18.2991 172.408 main 508 497 P________PP___ SH251956 -18.3075 172.415 -1 -18.3075 172.415 TC -18.2822 172.392 4 2 94
1956063S18171 1956 25 SP MM NOT_NAMED 1956-03-04 00:00:00 TS -18.3000 172.500 main 497 487 O________OO___ jtwc_sh SH251956 -18.3000 172.500 -1 -18.3000 172.500 TC -18.3000 172.500 4 1 91
1956063S18171 1956 25 SP MM NOT_NAMED 1956-03-04 03:00:00 TS -18.3024 172.557 main 487 487 P________PP___ SH251956 -18.3000 172.558 -1 -18.3000 172.558 TC -18.3071 172.555 4 1 92
1956063S18171 1956 25 SP MM NOT_NAMED 1956-03-04 06:00:00 TS -18.3025 172.598 main 487 487 O________OP___ jtwc_sh SH251956 -18.3000 172.600 -1 -18.3000 172.600 TC -18.3074 172.593 4 1 89
1956063S18171 1956 25 SP MM NOT_NAMED 1956-03-04 09:00:00 TS -18.3013 172.639 main 487 476 P________PP___ SH251956 -18.3000 172.643 -1 -18.3000 172.643 TC -18.3040 172.633 4 1 89
1956063S18171 1956 25 SP MM NOT_NAMED 1956-03-04 12:00:00 TS -18.3000 172.700 main 476 466 O________OO___ jtwc_sh SH251956 -18.3000 172.700 -1 -18.3000 172.700 TC -18.3000 172.700 4 1 91
1956063S18171 1956 25 SP MM NOT_NAMED 1956-03-04 15:00:00 TS -18.3026 172.780 main 466 455 P________PP___ SH251956 -18.3000 172.777 -1 -18.3000 172.777 TC -18.3079 172.785 4 2 91
1956063S18171 1956 25 SP MM NOT_NAMED 1956-03-04 18:00:00 TS -18.3049 172.901 main 455 434 O________OP___ jtwc_sh SH251956 -18.3000 172.900 -1 -18.3000 172.900 TC -18.3146 172.902 4 3 91
1956063S18171 1956 25 SP MM NOT_NAMED 1956-03-04 21:00:00 TS -18.3096 173.065 main 434 412 P________PP___ SH251956 -18.3074 173.062 -1 -18.3074 173.062 TC -18.3140 173.069 4 4 80
1956063S18171 1956 25 SP MM NOT_NAMED 1956-03-05 00:00:00 TS -18.2385 173.300 main 412 381 O________OO___ jtwc_sh SH251956 -18.3000 173.300 -1 -18.3000 173.300 TC -18.3000 173.300 4 6 74
1956063S18171 1956 25 SP MM NOT_NAMED 1956-03-05 03:00:00 TS -18.1569 173.637 main 381 338 P________PP___ SH251956 -18.2575 173.620 -1 -18.2575 173.620 TC -18.2687 173.614 4 7 78
1956063S18171 1956 25 SP MM NOT_NAMED 1956-03-05 06:00:00 TS -18.0861 174.037 main 338 296 O________OP___ jtwc_sh SH251956 -18.2000 174.000 -1 -18.2000 174.000 TC -18.2229 173.990 4 8 83
1956063S18171 1956 25 SP MM NOT_NAMED 1956-03-05 09:00:00 TS -18.0544 174.459 main 285 254 P________PP___ SH251956 -18.1575 174.400 -1 -18.1575 174.400 TC -18.1656 174.396 4 8 88
1956063S18171 1956 25 SP MM NOT_NAMED 1956-03-05 12:00:00 TS -18.0587 174.870 main 243 211 O________OO___ jtwc_sh SH251956 -18.1000 174.800 -1 -18.1000 174.800 TC -18.1000 174.800 4 8 87
1956063S18171 1956 25 SP MM NOT_NAMED 1956-03-05 15:00:00 TS -18.0166 175.253 main 200 169 P________PP___ SH251956 -17.9999 175.158 -1 -17.9999 175.158 TC -17.8900 175.179 4 7 84
1956063S18171 1956 25 SP MM NOT_NAMED 1956-03-05 18:00:00 TS -17.9852 175.628 main 169 126 O________OP___ jtwc_sh SH251956 -17.9000 175.500 -1 -17.9000 175.500 TC -17.6951 175.547 4 7 85
1956063S18171 1956 25 SP MM NOT_NAMED 1956-03-05 21:00:00 TS -17.9571 176.008 main 126 85 P________PP___ SH251956 -17.7375 175.858 -1 -17.7375 175.858 TC -17.6276 175.892 4 7 99
1956063S18171 1956 25 SP MM NOT_NAMED 1956-03-06 00:00:00 TS -18.1000 176.375 main 85 69 O________OO___ jtwc_sh SH251956 -17.8000 176.200 -1 -17.8000 176.200 TC -17.8000 176.200 4 9 130
1956063S18171 1956 25 SP MM NOT_NAMED 1956-03-06 03:00:00 TS -18.5461 176.750 main 76 76 P________PP___ SH251956 -18.3001 176.530 -1 -18.3001 176.530 TC -18.3768 176.511 4 13 150
1956063S18171 1956 25 SP MM NOT_NAMED 1956-03-06 06:00:00 TS -19.2225 177.070 main 123 123 O________OP___ jtwc_sh SH251956 -19.1000 176.800 -1 -19.1000 176.800 TC -19.1901 176.781 4 16 161
1956063S18171 1956 25 SP MM NOT_NAMED 1956-03-06 09:00:00 TS -20.0453 177.311 main 200 200 P________PP___ SH251956 -20.0425 177.010 -1 -20.0425 177.010 TC -20.1083 176.986 4 17 168
1956063S18171 1956 25 SP MM NOT_NAMED 1956-03-06 12:00:00 TS -20.9105 177.439 main 295 295 O________OO___ jtwc_sh SH251956 -21.0000 177.100 -1 -21.0000 177.100 TC -21.0000 177.100 4 16 176
1956063S18171 1956 25 SP MM NOT_NAMED 1956-03-06 15:00:00 TS -21.6629 177.425 main 383 383 P________PP___ SH251956 -21.7599 177.038 -1 -21.7599 177.038 TC -21.7157 177.052 4 15 184
1956063S18171 1956 25 SP MM NOT_NAMED 1956-03-06 18:00:00 TS -22.3604 177.331 main 462 462 O________OP___ jtwc_sh SH251956 -22.4000 176.900 -1 -22.4000 176.900 TC -22.3772 176.919 4 14 188
1956063S18171 1956 25 SP MM NOT_NAMED 1956-03-06 21:00:00 TS -23.0303 177.219 main 530 530 P________PP___ SH251956 -23.0025 176.763 -1 -23.0025 176.763 TC -22.9751 176.777 4 13 188
1956063S18171 1956 25 SP MM NOT_NAMED 1956-03-07 00:00:00 TS -23.6250 177.150 main 597 598 O________OO___ jtwc_sh SH251956 -23.5000 176.700 -1 -23.5000 176.700 TC -23.5000 176.700 4 11 181
1956063S18171 1956 25 SP MM NOT_NAMED 1956-03-07 03:00:00 TS -24.1260 177.211 main 652 652 P________PP___ SH251956 -23.8725 176.805 -1 -23.8725 176.805 TC -23.9470 176.807 4 10 171
1956063S18171 1956 25 SP MM NOT_NAMED 1956-03-07 06:00:00 TS -24.5839 177.324 main 707 707 O________OP___ jtwc_sh SH251956 -24.2000 177.000 -1 -24.2000 177.000 TC -24.3252 176.989 4 10 168
1956063S18171 1956 25 SP MM NOT_NAMED 1956-03-07 09:00:00 TS -25.0548 177.439 main 762 761 P________PP___ SH251956 -24.6000 177.200 -1 -24.6000 177.200 TC -24.6658 177.201 4 9 167
1956063S18171 1956 25 SP MM NOT_NAMED 1956-03-07 12:00:00 TS -25.5000 177.550 main 805 805 O________OO___ jtwc_sh SH251956 -25.0000 177.400 -1 -25.0000 177.400 TC -25.0000 177.400 4 9 166
1956063S18171 1956 25 SP MM NOT_NAMED 1956-03-07 15:00:00 TS -25.8845 177.669 main 849 849 P________PP___ SH251956 -25.3500 177.573 -1 -25.3500 177.573 TC -25.3335 177.648 4 8 166
1956063S18171 1956 25 SP MM NOT_NAMED 1956-03-07 18:00:00 TS -26.2463 177.755 main 883 883 O________OP___ jtwc_sh SH251956 -25.7000 177.700 -1 -25.7000 177.700 TC -25.6731 177.856 4 7 169
1956063S18171 1956 25 SP MM NOT_NAMED 1956-03-07 21:00:00 TS -26.6098 177.824 main 927 927 P________PP___ SH251956 -26.0621 177.861 -1 -26.0621 177.861 TC -26.0512 177.937 4 8 0
1956063S18171 1956 25 SP MM NOT_NAMED 1956-03-08 00:00:00 TS -27.0250 177.725 main 949 885 O________OO___ jtwc_sh SH251956 -26.5000 177.800 -1 -26.5000 177.800 TC -26.5000 177.800 4 10 205
1956063S18171 1956 25 SP MM NOT_NAMED 1956-03-08 03:00:00 TS -27.5488 177.336 main 881 799 P________PP___ SH251956 -27.0626 177.328 -1 -27.0626 177.328 TC -27.0845 177.304 4 14 218
1956063S18171 1956 25 SP MM NOT_NAMED 1956-03-08 06:00:00 TS -28.1241 176.759 main 799 710 O________OP___ jtwc_sh SH251956 -27.7000 176.600 -1 -27.7000 176.600 TC -27.7322 176.589 4 16 223
1956063S18171 1956 25 SP MM NOT_NAMED 1956-03-08 09:00:00 TS -28.7174 176.110 main 710 636 P________PP___ SH251956 -28.3730 175.801 -1 -28.3730 175.801 TC -28.3882 175.779 4 16 225
1956063S18171 1956 25 SP MM NOT_NAMED 1956-03-08 12:00:00 TS -29.2750 175.450 main 625 564 O________OO___ jtwc_sh SH251956 -29.0000 175.000 -1 -29.0000 175.000 TC -29.0000 175.000 4 15 228
1956063S18171 1956 25 SP MM NOT_NAMED 1956-03-08 15:00:00 TS -29.7190 174.850 main 561 505 P________PP___ SH251956 -29.4796 174.339 -1 -29.4796 174.339 TC -29.4917 174.356 4 13 229
1956063S18171 1956 25 SP MM NOT_NAMED 1956-03-08 18:00:00 TS -30.1212 174.312 main 505 453 O________OP___ jtwc_sh SH251956 -29.9000 173.800 -1 -29.9000 173.800 TC -29.9371 173.782 4 12 227
1956063S18171 1956 25 SP MM NOT_NAMED 1956-03-08 21:00:00 TS -30.5361 173.833 main 452 404 P________PP___ SH251956 -30.3424 173.317 -1 -30.3424 173.317 TC -30.3639 173.317 4 11 219
1956063S18171 1956 25 SP MM NOT_NAMED 1956-03-09 00:00:00 TS -30.9750 173.500 main 393 346 O________OO___ jtwc_sh SH251956 -30.8000 173.000 -1 -30.8000 173.000 TC -30.8000 173.000 4 10 204
1956063S18171 1956 25 SP MM NOT_NAMED 1956-03-09 03:00:00 TS -31.4671 173.344 main 335 280 P________PP___ SH251956 -31.2923 172.875 -1 -31.2923 172.875 TC -31.3005 172.839 4 10 188
1956063S18171 1956 25 SP MM NOT_NAMED 1956-03-09 06:00:00 TS -31.9882 173.341 main 280 226 O________OP___ jtwc_sh SH251956 -31.8000 172.900 -1 -31.8000 172.900 TC -31.8134 172.830 4 11 177
1956063S18171 1956 25 SP MM NOT_NAMED 1956-03-09 09:00:00 TS -32.5297 173.427 main 226 173 P________PP___ SH251956 -32.3225 172.985 -1 -32.3225 172.985 TC -32.3197 172.931 4 10 174
1956063S18171 1956 25 SP MM NOT_NAMED 1956-03-09 12:00:00 TS -33.0024 173.476 main 173 138 O________OO___ jtwc_sh SH251956 -32.8000 173.100 -1 -32.8000 173.100 TC -32.8000 173.100 4 8 0
1956063S18171 1956 25 SP MM NOT_NAMED 1956-03-09 15:00:00 TS -33.3456 173.426 main 138 106 P________PP___ SH251956 -33.1573 173.106 -1 -33.1573 173.106 TC -33.1455 173.169 4 6 185
1956063S18171 1956 25 SP MM NOT_NAMED 1956-03-09 18:00:00 TS -33.6235 173.410 main 106 81 O________OP___ jtwc_sh SH251956 -33.5000 173.200 -1 -33.5000 173.200 TC -33.4764 173.308 4 5 173
1956063S18171 1956 25 SP MM NOT_NAMED 1956-03-09 21:00:00 TS -33.8726 173.511 main 81 69 P________PP___ SH251956 -33.8743 173.482 -1 -33.8743 173.482 TC -33.8692 173.567 4 9 148
1956063S18171 1956 25 SP MM NOT_NAMED 1956-03-10 00:00:00 TS -34.4000 174.000 main 69 35 O________OO___ jtwc_sh SH251956 -34.4000 174.000 -1 -34.4000 174.000 TC -34.4000 174.000 4 17 142
1956063S18171 1956 25 SP MM NOT_NAMED 1956-03-10 03:00:00 TS -35.1755 174.743 main 35 35 P________PP___ SH251956 -35.1755 174.774 -1 -35.1755 174.774 TC -35.1756 174.680 4 22 142
1956063S18171 1956 25 SP MM NOT_NAMED 1956-03-10 06:00:00 TS -36.0948 175.648 main 56 41 O________OP___ jtwc_sh SH251956 -36.1000 175.700 -1 -36.1000 175.700 TC -36.0845 175.544 4 24 142
1956063S18171 1956 25 SP MM NOT_NAMED 1956-03-10 09:00:00 TS -37.0550 176.571 main 62 0 P________PP___ SH251956 -37.0571 176.600 -1 -37.0571 176.600 TC -37.0506 176.513 4 24 142
1956063S18171 1956 25 SP MM NOT_NAMED 1956-03-10 12:00:00 TS -38.0000 177.500 main 0 0 O________OO___ jtwc_sh SH251956 -38.0000 177.500 -1 -38.0000 177.500 TC -38.0000 177.500 4 23 141
1956063S18171 1956 25 SP MM NOT_NAMED 1956-03-10 15:00:00 TS -38.8402 178.379 main 28 28 P________PP___ SH251956 -38.8215 178.353 -1 -38.8215 178.353 TC -38.8775 178.432 4 21 140
1956063S18171 1956 25 SP MM NOT_NAMED 1956-03-10 18:00:00 TS -39.6299 179.237 main 116 116 O________OP___ jtwc_sh SH251956 -39.6000 179.200 -1 -39.6000 179.200 TC -39.6897 179.311 4 21 140
1956063S18171 1956 25 SP MM NOT_NAMED 1956-03-10 21:00:00 TS -40.4152 180.108 main 223 223 P________PP___ SH251956 -40.3941 -179.918 -1 -40.3941 -179.918 TC -40.4573 -179.841 4 21 139
1956063S18171 1956 25 SP MM NOT_NAMED 1956-03-11 00:00:00 TS -41.2000 181.000 main 336 O________OO___ jtwc_sh SH251956 -41.2000 -179.000 -1 -41.2000 181.000 TC -41.2000 -179.000 4 21 139

デジタル台風データ・検索

IBTrACS Databaseについて

本データベースは、米国NOAAが公開する1842年以降の世界の熱帯低気圧のベストトラックデータアーカイブInternational Best Track Archive for Climate Stewardship (IBTrACS)を、ウェブで閲覧しやすい形式に変換したものです。

最終更新日:2021-12-03